createdAt,value
2023-04-28T00:00:21.966Z,100221.81
2023-04-28T00:03:11.472Z,100265.69
2023-04-28T00:05:39.761Z,100283.31
2023-04-28T00:08:07.273Z,100272.50
2023-04-28T00:10:35.337Z,100281.59
2023-04-28T00:13:02.688Z,100281.59
2023-04-28T00:15:30.552Z,100284.44
2023-04-28T00:18:00.088Z,100284.38
2023-04-28T00:20:33.827Z,100249.88
2023-04-28T00:24:01.816Z,100278.09
2023-04-28T00:31:28.835Z,100303.31
2023-04-28T00:37:30.729Z,100308.34
2023-04-28T00:40:00.455Z,100306.66
2023-04-28T00:42:34.795Z,100283.22
2023-04-28T00:45:07.507Z,100308.03
2023-04-28T00:47:35.500Z,100308.34
2023-04-28T00:50:11.744Z,100299.16
2023-04-28T00:53:07.376Z,100311.56
2023-04-28T00:56:07.906Z,100301.81
2023-04-28T00:58:56.962Z,100323.97
2023-04-28T01:01:29.601Z,100328.63
2023-04-28T01:04:16.833Z,100319.75
2023-04-28T01:06:48.721Z,100320.00
2023-04-28T01:09:16.398Z,100330.38
2023-04-28T01:12:12.193Z,100333.22
2023-04-28T01:15:18.437Z,100340.91
2023-04-28T01:17:48.520Z,100329.47
2023-04-28T01:21:08.820Z,100335.75
2023-04-28T01:23:39.647Z,100333.63
2023-04-28T01:26:08.032Z,100339.59
2023-04-28T01:28:47.485Z,100335.91
2023-04-28T01:31:43.959Z,100347.69
2023-04-28T01:34:11.485Z,100341.28
2023-04-28T01:36:44.168Z,100338.66
2023-04-28T01:39:15.295Z,100344.94
2023-04-28T01:41:51.508Z,100340.03
2023-04-28T01:45:03.609Z,100338.66
2023-04-28T01:47:42.931Z,100350.69
2023-04-28T01:50:11.979Z,100351.00
2023-04-28T01:52:50.040Z,100352.38
2023-04-28T01:55:28.590Z,100324.41
2023-04-28T01:57:59.151Z,100344.63
2023-04-28T02:00:33.484Z,100342.50
2023-04-28T02:03:01.404Z,100328.16
2023-04-28T02:05:29.691Z,100343.16
2023-04-28T02:07:59.176Z,100318.47
2023-04-28T02:10:27.706Z,100347.16
2023-04-28T02:13:05.246Z,100349.53
2023-04-28T02:15:48.686Z,100345.84
2023-04-28T02:22:47.124Z,100357.50
2023-04-28T02:25:14.848Z,100357.19
2023-04-28T02:27:50.693Z,100336.75
2023-04-28T02:30:18.366Z,100335.91
2023-04-28T02:32:45.878Z,100343.50
2023-04-28T02:35:19.812Z,100349.91
2023-04-28T02:37:47.165Z,100323.03
2023-04-28T02:40:15.503Z,100347.38
2023-04-28T02:42:46.153Z,100357.50
2023-04-28T02:45:45.785Z,100355.97
2023-04-28T02:48:13.370Z,100341.78
2023-04-28T02:50:41.297Z,100351.69
2023-04-28T02:53:11.508Z,100344.13
2023-04-28T02:55:39.758Z,100355.19
2023-04-28T02:58:07.312Z,100339.66
2023-04-28T03:00:37.423Z,100327.75
2023-04-28T03:03:05.507Z,100349.97
2023-04-28T03:05:34.690Z,100346.75
2023-04-28T03:08:07.251Z,100346.75
2023-04-28T03:10:36.868Z,100342.41
2023-04-28T03:13:07.378Z,100358.00
2023-04-28T03:15:36.830Z,100350.13
2023-04-28T03:18:04.304Z,100352.66
2023-04-28T03:20:32.565Z,100358.19
2023-04-28T03:23:00.159Z,100358.69
2023-04-28T03:25:27.900Z,100359.56
2023-04-28T03:27:55.306Z,100340.00
2023-04-28T03:30:23.582Z,100360.63
2023-04-28T03:32:51.424Z,100366.69
2023-04-28T03:35:19.427Z,100365.16
2023-04-28T03:37:51.498Z,100360.84
2023-04-28T03:40:28.708Z,100352.88
2023-04-28T03:43:19.677Z,100364.81
2023-04-28T03:46:10.335Z,100369.63
2023-04-28T03:48:38.056Z,100371.47
2023-04-28T03:51:05.893Z,100378.66
2023-04-28T03:53:33.735Z,100368.41
2023-04-28T03:56:01.614Z,100375.03
2023-04-28T03:58:33.251Z,100350.31
2023-04-28T04:01:03.283Z,100374.84
2023-04-28T04:03:33.904Z,100381.97
2023-04-28T04:06:16.599Z,100362.06
2023-04-28T04:08:45.958Z,100365.41
2023-04-28T04:11:15.894Z,100392.94
2023-04-28T04:13:48.388Z,100392.84
2023-04-28T04:16:28.050Z,100397.94
2023-04-28T04:19:36.534Z,100396.56
2023-04-28T04:22:12.523Z,100399.41
2023-04-28T04:24:41.181Z,100358.66
2023-04-28T04:27:25.286Z,100404.22
2023-04-28T04:29:54.856Z,100399.81
2023-04-28T04:32:25.405Z,100400.44
2023-04-28T04:34:58.114Z,100390.06
2023-04-28T04:37:29.521Z,100408.13
2023-04-28T04:40:01.178Z,100401.28
2023-04-28T04:42:35.768Z,100403.53
2023-04-28T04:45:07.967Z,100401.72
2023-04-28T04:47:38.296Z,100394.06
2023-04-28T04:50:44.847Z,100409.31
2023-04-28T04:54:08.369Z,100416.13
2023-04-28T04:56:39.153Z,100398.75
2023-04-28T04:59:18.310Z,100419.97
2023-04-28T05:01:53.979Z,100418.69
2023-04-28T05:04:23.278Z,100421.59
2023-04-28T05:06:52.401Z,100416.28
2023-04-28T05:09:20.863Z,100425.19
2023-04-28T05:12:02.924Z,100426.91
2023-04-28T05:14:30.510Z,100421.50
2023-04-28T05:17:02.663Z,100422.88
2023-04-28T05:19:35.597Z,100413.25
2023-04-28T05:22:08.111Z,100407.06
2023-04-28T05:24:42.374Z,100403.31
2023-04-28T05:27:20.802Z,100401.06
2023-04-28T05:30:04.657Z,100408.38
2023-04-28T05:32:39.700Z,100421.88
2023-04-28T05:35:07.652Z,100419.88
2023-04-28T05:37:35.367Z,100396.97
2023-04-28T05:40:08.192Z,100389.47
2023-04-28T05:42:37.738Z,100408.50
2023-04-28T05:45:07.020Z,100402.56
2023-04-28T05:48:06.556Z,100402.97
2023-04-28T05:50:55.668Z,100423.31
2023-04-28T05:53:31.080Z,100415.56
2023-04-28T05:56:00.761Z,100418.94
2023-04-28T05:58:29.865Z,100421.84
2023-04-28T06:00:59.960Z,100412.56
2023-04-28T06:03:27.973Z,100414.81
2023-04-28T06:05:59.416Z,100425.56
2023-04-28T06:08:30.373Z,100424.00
2023-04-28T06:10:58.034Z,100422.25
2023-04-28T06:13:27.365Z,100428.97
2023-04-28T06:15:55.289Z,100433.78
2023-04-28T06:18:47.325Z,100432.03
2023-04-28T06:21:21.805Z,100435.25
2023-04-28T06:24:00.384Z,100434.63
2023-04-28T06:26:35.751Z,100440.69
2023-04-28T06:29:03.947Z,100434.22
2023-04-28T06:32:09.791Z,100440.44
2023-04-28T06:35:08.545Z,100443.06
2023-04-28T06:37:38.759Z,100438.63
2023-04-28T06:40:58.696Z,100455.25
2023-04-28T06:43:52.793Z,100446.72
2023-04-28T06:51:00.837Z,100432.34
2023-04-28T06:53:56.800Z,100441.78
2023-04-28T06:56:26.969Z,100437.09
2023-04-28T06:58:59.137Z,100441.47
2023-04-28T07:01:28.017Z,100446.72
2023-04-28T07:03:59.543Z,100443.00
2023-04-28T07:06:36.789Z,100447.88
2023-04-28T07:09:04.895Z,100441.97
2023-04-28T07:11:33.668Z,100429.81
2023-04-28T07:14:01.330Z,100439.41
2023-04-28T07:16:31.586Z,100440.31
2023-04-28T07:19:01.605Z,100428.97
2023-04-28T07:22:00.076Z,100435.69
2023-04-28T07:24:33.375Z,100441.19
2023-04-28T07:27:04.407Z,100439.75
2023-04-28T07:29:34.389Z,100425.91
2023-04-28T07:32:06.837Z,100415.53
2023-04-28T07:34:42.184Z,100421.72
2023-04-28T07:37:09.975Z,100439.50
2023-04-28T07:39:42.241Z,100435.69
2023-04-28T07:42:36.040Z,100418.38
2023-04-28T07:45:07.739Z,100442.94
2023-04-28T07:47:38.796Z,100437.00
2023-04-28T07:50:14.656Z,100435.16
2023-04-28T07:52:50.168Z,100441.63
2023-04-28T07:55:19.627Z,100438.41
2023-04-28T07:58:01.519Z,100445.47
2023-04-28T08:00:33.671Z,100442.34
2023-04-28T08:03:05.822Z,100439.91
2023-04-28T08:05:38.592Z,100438.47
2023-04-28T08:08:15.270Z,100424.47
2023-04-28T08:10:58.505Z,100432.84
2023-04-28T08:13:49.758Z,100430.06
2023-04-28T08:16:23.904Z,100426.03
2023-04-28T08:18:56.103Z,100431.50
2023-04-28T08:21:54.819Z,100437.19
2023-04-28T08:24:52.969Z,100438.47
2023-04-28T08:27:50.277Z,100430.28
2023-04-28T08:30:50.701Z,100436.94
2023-04-28T08:33:21.591Z,100430.19
2023-04-28T08:35:59.305Z,100436.78
2023-04-28T08:38:40.447Z,100425.63
2023-04-28T08:41:11.669Z,100429.28
2023-04-28T08:43:48.678Z,100432.28
2023-04-28T08:46:18.823Z,100428.31
2023-04-28T08:49:01.847Z,100427.97
2023-04-28T08:51:47.929Z,100428.13
2023-04-28T08:54:26.693Z,100427.63
2023-04-28T08:56:59.630Z,100425.91
2023-04-28T08:59:28.266Z,100412.78
2023-04-28T09:02:06.259Z,100414.16
2023-04-28T09:04:37.736Z,100420.78
2023-04-28T09:07:13.995Z,100409.56
2023-04-28T09:10:24.480Z,100408.47
2023-04-28T09:13:26.224Z,100407.22
2023-04-28T09:16:03.098Z,100393.69
2023-04-28T09:18:34.689Z,100400.22
2023-04-28T09:21:08.551Z,100397.06
2023-04-28T09:23:52.499Z,100392.81
2023-04-28T09:26:33.354Z,100383.91
2023-04-28T09:29:14.460Z,100377.66
2023-04-28T09:32:12.417Z,100372.59
2023-04-28T09:35:14.951Z,100367.63
2023-04-28T09:37:59.083Z,100369.69
2023-04-28T09:40:27.881Z,100354.59
2023-04-28T09:43:15.309Z,100357.41
2023-04-28T09:45:54.818Z,100359.56
2023-04-28T09:48:36.897Z,100353.31
2023-04-28T09:51:12.364Z,100350.72
2023-04-28T09:53:53.173Z,100351.06
2023-04-28T09:56:51.959Z,100350.66
2023-04-28T09:59:23.694Z,100353.72
2023-04-28T10:01:58.408Z,100354.69
2023-04-28T10:04:52.044Z,100340.81
2023-04-28T10:07:43.328Z,100337.34
2023-04-28T10:10:40.882Z,100347.00
2023-04-28T10:13:47.047Z,100331.97
2023-04-28T10:16:19.750Z,100329.28
2023-04-28T10:18:49.806Z,100329.19
2023-04-28T10:21:25.440Z,100321.91
2023-04-28T10:24:11.541Z,100311.56
2023-04-28T10:27:04.717Z,100313.84
2023-04-28T10:29:37.036Z,100309.69
2023-04-28T10:32:29.444Z,100306.28
2023-04-28T10:35:35.602Z,100295.88
2023-04-28T10:38:15.683Z,100289.69
2023-04-28T10:41:06.402Z,100305.69
2023-04-28T10:47:19.985Z,100293.38
2023-04-28T10:50:39.228Z,100309.91
2023-04-28T10:53:18.195Z,100301.00
2023-04-28T10:56:33.173Z,100289.44
2023-04-28T10:59:43.291Z,100284.94
2023-04-28T11:02:49.787Z,100287.13
2023-04-28T11:06:51.727Z,100288.47
2023-04-28T11:09:47.061Z,100274.19
2023-04-28T11:13:40.058Z,100277.28
2023-04-28T11:16:25.646Z,100264.28
2023-04-28T11:19:16.095Z,100270.41
2023-04-28T11:23:04.863Z,100270.88
2023-04-28T11:26:00.004Z,100274.34
2023-04-28T11:28:29.291Z,100265.78
2023-04-28T11:31:21.101Z,100272.44
2023-04-28T11:34:22.018Z,100281.69
2023-04-28T11:36:54.651Z,100270.88
2023-04-28T11:39:53.748Z,100274.16
2023-04-28T11:42:31.223Z,100269.72
2023-04-28T11:46:13.917Z,100262.47
2023-04-28T11:49:19.713Z,100254.88
2023-04-28T11:55:07.232Z,100249.41
2023-04-28T11:57:45.972Z,100250.56
2023-04-28T12:00:37.760Z,100240.50
2023-04-28T12:03:20.700Z,100253.66
2023-04-28T12:05:54.469Z,100249.72
2023-04-28T12:08:41.298Z,100245.28
2023-04-28T12:11:36.379Z,100238.59
2023-04-28T12:15:29.193Z,100235.06
2023-04-28T12:23:40.925Z,100190.66
2023-04-28T12:30:01.506Z,100209.25
2023-04-28T12:32:57.392Z,100205.22
2023-04-28T12:36:10.940Z,100192.88
2023-04-28T12:38:58.539Z,100182.72
2023-04-28T12:41:30.455Z,100184.69
2023-04-28T12:44:07.386Z,100174.94
2023-04-28T12:46:50.176Z,100176.16
2023-04-28T12:49:39.136Z,100176.59
2023-04-28T12:52:29.004Z,100167.63
2023-04-28T12:55:06.652Z,100157.72
2023-04-28T12:57:53.010Z,100143.97
2023-04-28T13:00:29.255Z,100151.50
2023-04-28T13:03:03.712Z,100157.22
2023-04-28T13:06:17.662Z,100155.66
2023-04-28T13:08:53.410Z,100143.53
2023-04-28T13:11:32.729Z,100139.19
2023-04-28T13:14:09.624Z,100130.72
2023-04-28T13:16:43.579Z,100129.84
2023-04-28T13:19:20.422Z,100114.78
2023-04-28T13:21:54.046Z,100120.06
2023-04-28T13:24:27.366Z,100113.50
2023-04-28T13:27:00.111Z,100102.75
2023-04-28T13:29:34.602Z,100105.94
2023-04-28T13:32:29.301Z,100099.91
2023-04-28T13:34:59.243Z,100098.88
2023-04-28T13:37:32.113Z,100096.66
2023-04-28T13:40:00.534Z,100097.16
2023-04-28T13:42:31.375Z,100094.50
2023-04-28T13:45:10.166Z,100096.50
2023-04-28T13:47:51.354Z,100081.50
2023-04-28T13:50:32.798Z,100079.34
2023-04-28T13:53:53.188Z,100083.13
2023-04-28T13:56:40.542Z,100064.56
2023-04-28T13:59:32.029Z,100054.81
2023-04-28T14:02:18.430Z,100040.03
2023-04-28T14:04:54.044Z,100037.28
2023-04-28T14:07:35.490Z,100037.16
2023-04-28T14:10:12.035Z,100045.84
2023-04-28T14:13:02.424Z,100047.13
2023-04-28T14:15:51.208Z,100042.47
2023-04-28T14:18:56.090Z,100022.16
2023-04-28T14:21:26.351Z,100037.09
2023-04-28T14:23:54.367Z,100025.88
2023-04-28T14:26:37.553Z,100024.72
2023-04-28T14:29:19.126Z,100020.72
2023-04-28T14:32:16.178Z,100014.69
2023-04-28T14:35:38.540Z,100022.19
2023-04-28T14:38:38.232Z,100028.50
2023-04-28T14:41:17.671Z,100027.81
2023-04-28T14:43:46.635Z,100013.75
2023-04-28T14:46:14.709Z,100017.09
2023-04-28T14:48:59.760Z,100011.06
2023-04-28T14:51:38.316Z,100010.41
2023-04-28T14:54:10.534Z,100005.91
2023-04-28T14:56:41.709Z,100011.13
2023-04-28T14:59:24.571Z,99995.75
2023-04-28T15:02:21.880Z,100012.09
2023-04-28T15:04:49.854Z,100006.81
2023-04-28T15:07:17.966Z,100007.09
2023-04-28T15:09:46.617Z,99989.59
2023-04-28T15:12:16.059Z,99987.53
2023-04-28T15:14:46.439Z,99995.88
2023-04-28T15:17:16.572Z,100003.53
2023-04-28T15:19:45.942Z,100000.81
2023-04-28T15:22:43.766Z,99996.50
2023-04-28T15:25:14.077Z,99996.22
2023-04-28T15:27:52.799Z,99996.06
2023-04-28T15:30:24.254Z,100003.31
2023-04-28T15:33:00.276Z,99994.25
2023-04-28T15:35:36.997Z,100002.16
2023-04-28T15:38:07.117Z,99998.28
2023-04-28T15:40:44.028Z,99992.97
2023-04-28T15:43:17.210Z,99987.91
2023-04-28T15:45:50.060Z,99995.44
2023-04-28T15:48:27.792Z,99983.94
2023-04-28T15:50:57.029Z,99978.72
2023-04-28T15:53:28.912Z,99985.06
2023-04-28T15:55:59.678Z,99977.59
2023-04-28T15:58:29.178Z,99988.03
2023-04-28T16:01:02.792Z,99978.19
2023-04-28T16:03:37.971Z,99970.72
2023-04-28T16:06:37.931Z,99969.69
2023-04-28T16:09:11.506Z,99966.59
2023-04-28T16:11:45.195Z,99965.81
2023-04-28T16:14:20.049Z,99960.00
2023-04-28T16:16:52.932Z,99960.38
2023-04-28T16:19:26.373Z,99953.84
2023-04-28T16:21:56.949Z,99943.63
2023-04-28T16:24:31.705Z,99949.06
2023-04-28T16:27:00.078Z,99943.16
2023-04-28T16:29:44.412Z,99936.75
2023-04-28T16:32:15.963Z,99941.16
2023-04-28T16:34:46.955Z,99936.16
2023-04-28T16:37:45.994Z,99928.28
2023-04-28T16:40:22.541Z,99928.47
2023-04-28T16:42:53.190Z,99921.47
2023-04-28T16:45:21.115Z,99916.50
2023-04-28T16:47:53.966Z,99914.38
2023-04-28T16:50:24.662Z,99910.81
2023-04-28T16:52:53.388Z,99898.44
2023-04-28T16:55:21.839Z,99894.56
2023-04-28T16:57:57.162Z,99899.53
2023-04-28T17:00:26.573Z,99892.00
2023-04-28T17:03:08.106Z,99892.16
2023-04-28T17:05:38.772Z,99895.41
2023-04-28T17:08:08.998Z,99901.94
2023-04-28T17:10:45.198Z,99883.34
2023-04-28T17:13:16.965Z,99895.59
2023-04-28T17:15:46.430Z,99892.91
2023-04-28T17:18:17.938Z,99891.56
2023-04-28T17:20:50.794Z,99894.69
2023-04-28T17:23:30.261Z,99896.75
2023-04-28T17:25:59.008Z,99896.31
2023-04-28T17:28:37.078Z,99897.88
2023-04-28T17:31:06.644Z,99897.25
2023-04-28T17:33:34.206Z,99898.25
2023-04-28T17:36:03.872Z,99898.31
2023-04-28T17:38:33.078Z,99893.38
2023-04-28T17:41:01.598Z,99887.34
2023-04-28T17:43:29.921Z,99893.88
2023-04-28T17:46:00.355Z,99901.81
2023-04-28T17:48:27.793Z,99898.09
2023-04-28T17:50:56.032Z,99898.53
2023-04-28T17:53:23.903Z,99893.28
2023-04-28T17:55:52.156Z,99890.00
2023-04-28T17:58:21.467Z,99885.31
2023-04-28T18:00:49.527Z,99889.13
2023-04-28T18:03:18.192Z,99883.00
2023-04-28T18:06:08.414Z,99888.03
2023-04-28T18:08:37.158Z,99875.75
2023-04-28T18:11:09.892Z,99877.97
2023-04-28T18:13:37.617Z,99858.06
2023-04-28T18:16:06.453Z,99889.09
2023-04-28T18:18:37.749Z,99882.63
2023-04-28T18:21:05.787Z,99875.59
2023-04-28T18:23:34.786Z,99868.72
2023-04-28T18:26:05.022Z,99875.56
2023-04-28T18:28:43.801Z,99872.63
2023-04-28T18:31:15.132Z,99874.28
2023-04-28T18:33:53.521Z,99875.56
2023-04-28T18:37:19.307Z,99860.41
2023-04-28T18:40:49.305Z,99858.66
2023-04-28T18:43:47.922Z,99862.19
2023-04-28T18:46:22.600Z,99860.25
2023-04-28T18:50:01.167Z,99869.03
2023-04-28T18:52:54.156Z,99874.53
2023-04-28T18:55:34.548Z,99875.13
2023-04-28T18:58:22.705Z,99879.56
2023-04-28T19:01:02.649Z,99881.84
2023-04-28T19:04:33.555Z,99875.81
2023-04-28T19:07:02.660Z,99879.78
2023-04-28T19:09:47.235Z,99872.44
2023-04-28T19:12:21.189Z,99869.72
2023-04-28T19:14:50.288Z,99872.06
2023-04-28T19:17:28.169Z,99885.84
2023-04-28T19:20:22.214Z,99883.75
2023-04-28T19:22:56.785Z,99880.00
2023-04-28T19:25:37.000Z,99885.44
2023-04-28T19:28:38.333Z,99883.75
2023-04-28T19:31:48.706Z,99875.84
2023-04-28T19:34:37.523Z,99880.19
2023-04-28T19:37:11.637Z,99871.06
2023-04-28T19:39:52.510Z,99874.59
2023-04-28T19:42:26.765Z,99882.09
2023-04-28T19:45:31.394Z,99885.22
2023-04-28T19:48:05.065Z,99845.03
2023-04-28T19:50:34.620Z,99867.50
2023-04-28T19:53:32.832Z,99865.81
2023-04-28T19:56:02.718Z,99870.84
2023-04-28T19:58:38.958Z,99870.63
2023-04-28T20:01:31.482Z,99864.19
2023-04-28T20:04:53.224Z,99856.25
2023-04-28T20:07:50.670Z,99849.56
2023-04-28T20:10:27.902Z,99845.81
2023-04-28T20:13:02.446Z,99840.41
2023-04-28T20:15:48.157Z,99843.13
2023-04-28T20:22:38.759Z,99846.69
2023-04-28T20:25:39.626Z,99844.19
2023-04-28T20:28:44.480Z,99839.59
2023-04-28T20:31:16.997Z,99840.44
2023-04-28T20:33:49.669Z,99822.09
2023-04-28T20:36:28.990Z,99827.94
2023-04-28T20:39:02.423Z,99827.53
2023-04-28T20:41:33.858Z,99828.56
2023-04-28T20:44:05.709Z,99836.06
2023-04-28T20:46:37.613Z,99841.72
2023-04-28T20:49:09.289Z,99833.16
2023-04-28T20:52:10.898Z,99843.34
2023-04-28T20:55:04.702Z,99837.94
2023-04-28T20:57:49.764Z,99848.78
2023-04-28T21:00:23.422Z,99851.25
2023-04-28T21:02:54.012Z,99831.91
2023-04-28T21:06:42.281Z,99850.66
2023-04-28T21:09:46.382Z,99843.34
2023-04-28T21:12:26.426Z,99841.06
2023-04-28T21:15:23.306Z,99836.28
2023-04-28T21:18:47.908Z,99822.13
2023-04-28T21:21:20.108Z,99827.75
2023-04-28T21:23:50.997Z,99835.22
2023-04-28T21:26:28.842Z,99826.50
2023-04-28T21:32:16.016Z,99832.53
2023-04-28T21:34:52.833Z,99828.56
2023-04-28T21:38:10.348Z,99834.84
2023-04-28T21:40:48.859Z,99828.19
2023-04-28T21:43:23.322Z,99833.38
2023-04-28T21:45:52.470Z,99840.03
2023-04-28T21:48:20.278Z,99832.53
2023-04-28T21:50:49.567Z,99829.41
2023-04-28T21:53:17.631Z,99828.34
2023-04-28T21:55:47.499Z,99828.78
2023-04-28T21:58:17.806Z,99817.50
2023-04-28T22:00:47.581Z,99815.88
2023-04-28T22:03:16.408Z,99827.31
2023-04-28T22:05:46.312Z,99814.63
2023-04-28T22:08:14.761Z,99813.78
2023-04-28T22:10:44.199Z,99805.03
2023-04-28T22:13:19.740Z,99800.03
2023-04-28T22:15:53.193Z,99801.09
2023-04-28T22:18:20.961Z,99787.94
2023-04-28T22:20:50.895Z,99789.81
2023-04-28T22:23:22.156Z,99791.69
2023-04-28T22:25:49.587Z,99780.84
2023-04-28T22:28:17.439Z,99780.66
2023-04-28T22:30:46.939Z,99771.69
2023-04-28T22:33:14.662Z,99770.88
2023-04-28T22:35:45.740Z,99786.69
2023-04-28T22:38:40.849Z,99783.38
2023-04-28T22:41:10.347Z,99780.44
2023-04-28T22:43:44.666Z,99782.31
2023-04-28T22:46:16.149Z,99780.44
2023-04-28T22:48:43.998Z,99766.50
2023-04-28T22:51:12.195Z,99768.97
2023-04-28T22:53:40.921Z,99762.75
2023-04-28T22:56:08.483Z,99762.94
2023-04-28T22:58:46.009Z,99754.63
2023-04-28T23:01:16.622Z,99751.28
2023-04-28T23:03:46.660Z,99738.38
2023-04-28T23:06:14.480Z,99728.38
2023-04-28T23:08:42.565Z,99733.56
2023-04-28T23:11:10.092Z,99732.31
2023-04-28T23:13:39.455Z,99722.13
2023-04-28T23:16:30.814Z,99730.47
2023-04-28T23:19:03.453Z,99707.56
2023-04-28T23:21:33.872Z,99711.72
2023-04-28T23:24:22.025Z,99713.78
2023-04-28T23:27:17.487Z,99723.97
2023-04-28T23:29:58.638Z,99719.22
2023-04-28T23:32:32.209Z,99709.63
2023-04-28T23:35:29.139Z,99703.19
2023-04-28T23:38:13.840Z,99696.97
2023-04-28T23:40:47.060Z,99678.22
2023-04-28T23:43:37.660Z,99667.59
2023-04-28T23:46:14.542Z,99665.31
2023-04-28T23:49:20.189Z,99669.66
2023-04-28T23:51:52.833Z,99662.38
2023-04-28T23:54:23.432Z,99653.00
2023-04-28T23:57:02.904Z,99633.06
2023-04-28T23:59:33.952Z,99642.41
